sensor_id;sensor_type;location;lat;lon;timestamp;P1;durP1;ratioP1;P2;durP2;ratioP2
31764;SDS011;18338;53.240;8.798;2022-11-14T00:00:26;42.15;;;26.10;;
31764;SDS011;18338;53.240;8.798;2022-11-14T00:02:54;40.25;;;25.40;;
31764;SDS011;18338;53.240;8.798;2022-11-14T00:05:24;40.90;;;26.50;;
31764;SDS011;18338;53.240;8.798;2022-11-14T00:07:53;39.47;;;26.38;;
31764;SDS011;18338;53.240;8.798;2022-11-14T00:10:20;38.22;;;25.17;;
31764;SDS011;18338;53.240;8.798;2022-11-14T00:12:47;38.88;;;26.10;;
31764;SDS011;18338;53.240;8.798;2022-11-14T00:15:14;39.75;;;25.55;;
31764;SDS011;18338;53.240;8.798;2022-11-14T00:17:40;39.45;;;26.17;;
31764;SDS011;18338;53.240;8.798;2022-11-14T00:20:08;38.05;;;25.98;;
31764;SDS011;18338;53.240;8.798;2022-11-14T00:22:36;35.72;;;23.85;;
31764;SDS011;18338;53.240;8.798;2022-11-14T00:25:02;35.80;;;24.42;;
31764;SDS011;18338;53.240;8.798;2022-11-14T00:27:29;39.85;;;25.88;;
31764;SDS011;18338;53.240;8.798;2022-11-14T00:29:56;36.40;;;25.38;;
31764;SDS011;18338;53.240;8.798;2022-11-14T00:32:23;39.42;;;25.67;;
31764;SDS011;18338;53.240;8.798;2022-11-14T00:34:49;38.83;;;25.27;;
31764;SDS011;18338;53.240;8.798;2022-11-14T00:37:16;39.45;;;25.95;;
31764;SDS011;18338;53.240;8.798;2022-11-14T00:39:43;36.97;;;24.58;;
31764;SDS011;18338;53.240;8.798;2022-11-14T00:42:10;34.45;;;25.00;;
31764;SDS011;18338;53.240;8.798;2022-11-14T00:44:36;35.80;;;23.77;;
31764;SDS011;18338;53.240;8.798;2022-11-14T00:47:03;37.13;;;24.98;;
31764;SDS011;18338;53.240;8.798;2022-11-14T00:49:30;37.55;;;26.13;;
31764;SDS011;18338;53.240;8.798;2022-11-14T00:51:56;36.60;;;24.58;;
31764;SDS011;18338;53.240;8.798;2022-11-14T00:54:23;37.90;;;24.60;;
31764;SDS011;18338;53.240;8.798;2022-11-14T00:56:51;34.75;;;24.05;;
31764;SDS011;18338;53.240;8.798;2022-11-14T00:59:18;34.83;;;24.33;;
31764;SDS011;18338;53.240;8.798;2022-11-14T01:01:45;37.28;;;25.83;;
31764;SDS011;18338;53.240;8.798;2022-11-14T01:04:11;36.38;;;24.73;;
31764;SDS011;18338;53.240;8.798;2022-11-14T01:06:38;36.38;;;24.65;;
31764;SDS011;18338;53.240;8.798;2022-11-14T01:09:05;37.30;;;25.00;;
31764;SDS011;18338;53.240;8.798;2022-11-14T01:11:32;36.67;;;25.13;;
31764;SDS011;18338;53.240;8.798;2022-11-14T01:13:58;35.33;;;24.48;;
31764;SDS011;18338;53.240;8.798;2022-11-14T01:16:25;35.67;;;24.10;;
31764;SDS011;18338;53.240;8.798;2022-11-14T01:18:51;35.55;;;24.38;;
31764;SDS011;18338;53.240;8.798;2022-11-14T01:21:18;38.88;;;23.88;;
31764;SDS011;18338;53.240;8.798;2022-11-14T01:23:45;37.08;;;24.38;;
31764;SDS011;18338;53.240;8.798;2022-11-14T01:26:12;36.03;;;25.40;;
31764;SDS011;18338;53.240;8.798;2022-11-14T01:28:39;34.58;;;24.50;;
31764;SDS011;18338;53.240;8.798;2022-11-14T01:31:10;34.08;;;22.92;;
31764;SDS011;18338;53.240;8.798;2022-11-14T01:33:41;36.28;;;24.52;;
31764;SDS011;18338;53.240;8.798;2022-11-14T01:36:08;36.03;;;23.90;;
31764;SDS011;18338;53.240;8.798;2022-11-14T01:38:36;35.25;;;23.25;;
31764;SDS011;18338;53.240;8.798;2022-11-14T01:41:03;31.90;;;21.63;;
31764;SDS011;18338;53.240;8.798;2022-11-14T01:43:31;32.40;;;23.10;;
31764;SDS011;18338;53.240;8.798;2022-11-14T01:53:42;33.00;;;22.75;;
31764;SDS011;18338;53.240;8.798;2022-11-14T01:56:11;32.25;;;22.65;;
31764;SDS011;18338;53.240;8.798;2022-11-14T01:58:41;33.22;;;23.33;;
31764;SDS011;18338;53.240;8.798;2022-11-14T02:01:11;31.10;;;21.42;;
31764;SDS011;18338;53.240;8.798;2022-11-14T02:03:39;32.03;;;21.77;;
31764;SDS011;18338;53.240;8.798;2022-11-14T02:06:10;33.00;;;22.35;;
31764;SDS011;18338;53.240;8.798;2022-11-14T02:08:40;34.92;;;23.23;;
31764;SDS011;18338;53.240;8.798;2022-11-14T02:11:11;33.25;;;21.90;;
31764;SDS011;18338;53.240;8.798;2022-11-14T02:13:38;29.80;;;22.02;;
31764;SDS011;18338;53.240;8.798;2022-11-14T02:16:05;32.88;;;21.70;;
31764;SDS011;18338;53.240;8.798;2022-11-14T02:18:33;29.00;;;20.92;;
31764;SDS011;18338;53.240;8.798;2022-11-14T02:20:59;30.70;;;21.58;;
31764;SDS011;18338;53.240;8.798;2022-11-14T02:23:27;31.08;;;21.48;;
31764;SDS011;18338;53.240;8.798;2022-11-14T02:25:55;29.52;;;21.50;;
31764;SDS011;18338;53.240;8.798;2022-11-14T02:28:22;29.63;;;21.90;;
31764;SDS011;18338;53.240;8.798;2022-11-14T02:30:49;31.33;;;22.20;;
31764;SDS011;18338;53.240;8.798;2022-11-14T02:33:16;30.63;;;21.90;;
31764;SDS011;18338;53.240;8.798;2022-11-14T02:35:42;29.42;;;21.05;;
31764;SDS011;18338;53.240;8.798;2022-11-14T02:38:09;33.15;;;21.95;;
31764;SDS011;18338;53.240;8.798;2022-11-14T02:40:36;28.42;;;20.77;;
31764;SDS011;18338;53.240;8.798;2022-11-14T02:43:02;30.45;;;20.75;;
31764;SDS011;18338;53.240;8.798;2022-11-14T02:45:29;29.73;;;20.73;;
31764;SDS011;18338;53.240;8.798;2022-11-14T02:47:56;31.60;;;21.67;;
31764;SDS011;18338;53.240;8.798;2022-11-14T02:50:22;30.25;;;21.45;;
31764;SDS011;18338;53.240;8.798;2022-11-14T02:52:49;28.73;;;21.38;;
31764;SDS011;18338;53.240;8.798;2022-11-14T02:55:17;32.28;;;21.38;;
31764;SDS011;18338;53.240;8.798;2022-11-14T02:57:44;30.95;;;21.13;;
31764;SDS011;18338;53.240;8.798;2022-11-14T03:00:11;30.40;;;21.65;;
31764;SDS011;18338;53.240;8.798;2022-11-14T03:02:40;27.63;;;20.05;;
31764;SDS011;18338;53.240;8.798;2022-11-14T03:05:07;30.70;;;21.27;;
31764;SDS011;18338;53.240;8.798;2022-11-14T03:07:34;30.25;;;20.08;;
31764;SDS011;18338;53.240;8.798;2022-11-14T03:10:01;30.67;;;21.27;;
31764;SDS011;18338;53.240;8.798;2022-11-14T03:12:27;28.25;;;19.60;;
31764;SDS011;18338;53.240;8.798;2022-11-14T03:14:55;28.52;;;20.30;;
31764;SDS011;18338;53.240;8.798;2022-11-14T03:17:22;27.73;;;19.98;;
31764;SDS011;18338;53.240;8.798;2022-11-14T03:19:49;30.85;;;21.83;;
31764;SDS011;18338;53.240;8.798;2022-11-14T03:22:16;29.50;;;20.83;;
31764;SDS011;18338;53.240;8.798;2022-11-14T03:24:43;33.45;;;21.67;;
31764;SDS011;18338;53.240;8.798;2022-11-14T03:27:09;30.27;;;21.00;;
31764;SDS011;18338;53.240;8.798;2022-11-14T03:29:36;29.92;;;20.45;;
31764;SDS011;18338;53.240;8.798;2022-11-14T03:32:03;31.08;;;20.63;;
31764;SDS011;18338;53.240;8.798;2022-11-14T03:34:30;28.58;;;20.48;;
31764;SDS011;18338;53.240;8.798;2022-11-14T03:36:57;31.67;;;21.42;;
31764;SDS011;18338;53.240;8.798;2022-11-14T03:39:23;30.48;;;21.48;;
31764;SDS011;18338;53.240;8.798;2022-11-14T03:41:50;31.27;;;20.58;;
31764;SDS011;18338;53.240;8.798;2022-11-14T03:44:17;32.85;;;21.05;;
31764;SDS011;18338;53.240;8.798;2022-11-14T03:46:43;33.80;;;21.52;;
31764;SDS011;18338;53.240;8.798;2022-11-14T03:49:10;33.47;;;21.60;;
31764;SDS011;18338;53.240;8.798;2022-11-14T03:51:37;34.10;;;22.52;;
31764;SDS011;18338;53.240;8.798;2022-11-14T03:54:04;34.42;;;22.13;;
31764;SDS011;18338;53.240;8.798;2022-11-14T03:56:31;33.25;;;22.45;;
31764;SDS011;18338;53.240;8.798;2022-11-14T03:58:59;33.78;;;21.95;;
31764;SDS011;18338;53.240;8.798;2022-11-14T04:01:26;32.45;;;22.25;;
31764;SDS011;18338;53.240;8.798;2022-11-14T04:03:54;32.95;;;21.60;;
31764;SDS011;18338;53.240;8.798;2022-11-14T04:06:21;32.03;;;22.13;;
31764;SDS011;18338;53.240;8.798;2022-11-14T04:08:48;32.17;;;21.08;;
31764;SDS011;18338;53.240;8.798;2022-11-14T04:11:17;33.58;;;22.40;;
31764;SDS011;18338;53.240;8.798;2022-11-14T04:13:44;33.38;;;22.13;;
31764;SDS011;18338;53.240;8.798;2022-11-14T04:16:11;36.40;;;22.27;;
31764;SDS011;18338;53.240;8.798;2022-11-14T04:18:37;33.75;;;22.15;;
31764;SDS011;18338;53.240;8.798;2022-11-14T04:21:04;31.98;;;21.77;;
31764;SDS011;18338;53.240;8.798;2022-11-14T04:23:31;31.70;;;21.38;;
31764;SDS011;18338;53.240;8.798;2022-11-14T04:25:57;32.97;;;21.95;;
31764;SDS011;18338;53.240;8.798;2022-11-14T04:28:24;34.28;;;21.90;;
31764;SDS011;18338;53.240;8.798;2022-11-14T04:30:51;33.30;;;22.08;;
31764;SDS011;18338;53.240;8.798;2022-11-14T04:33:17;32.42;;;21.77;;
31764;SDS011;18338;53.240;8.798;2022-11-14T04:35:44;35.55;;;22.42;;
31764;SDS011;18338;53.240;8.798;2022-11-14T04:38:11;32.28;;;21.52;;
31764;SDS011;18338;53.240;8.798;2022-11-14T04:40:37;32.92;;;21.73;;
31764;SDS011;18338;53.240;8.798;2022-11-14T04:43:04;34.17;;;21.67;;
31764;SDS011;18338;53.240;8.798;2022-11-14T04:45:31;33.63;;;21.10;;
31764;SDS011;18338;53.240;8.798;2022-11-14T04:47:57;32.85;;;20.85;;
31764;SDS011;18338;53.240;8.798;2022-11-14T04:50:24;31.83;;;21.90;;
31764;SDS011;18338;53.240;8.798;2022-11-14T04:52:51;35.38;;;23.00;;
31764;SDS011;18338;53.240;8.798;2022-11-14T04:55:19;30.55;;;21.33;;
31764;SDS011;18338;53.240;8.798;2022-11-14T04:57:45;32.58;;;22.17;;
31764;SDS011;18338;53.240;8.798;2022-11-14T05:00:12;34.05;;;22.85;;
31764;SDS011;18338;53.240;8.798;2022-11-14T05:02:39;34.22;;;21.70;;
31764;SDS011;18338;53.240;8.798;2022-11-14T05:05:06;32.63;;;21.50;;
31764;SDS011;18338;53.240;8.798;2022-11-14T05:07:33;32.22;;;22.13;;
31764;SDS011;18338;53.240;8.798;2022-11-14T05:10:02;32.50;;;21.90;;
31764;SDS011;18338;53.240;8.798;2022-11-14T05:12:29;34.58;;;22.70;;
31764;SDS011;18338;53.240;8.798;2022-11-14T05:14:56;33.70;;;22.85;;
31764;SDS011;18338;53.240;8.798;2022-11-14T05:17:23;33.67;;;22.20;;
31764;SDS011;18338;53.240;8.798;2022-11-14T05:19:50;35.22;;;23.45;;
31764;SDS011;18338;53.240;8.798;2022-11-14T05:22:31;35.80;;;22.50;;
31764;SDS011;18338;53.240;8.798;2022-11-14T05:24:57;33.92;;;22.92;;
31764;SDS011;18338;53.240;8.798;2022-11-14T05:27:24;34.03;;;22.55;;
31764;SDS011;18338;53.240;8.798;2022-11-14T05:29:54;32.67;;;22.33;;
31764;SDS011;18338;53.240;8.798;2022-11-14T05:32:20;35.58;;;23.23;;
31764;SDS011;18338;53.240;8.798;2022-11-14T05:34:47;34.00;;;21.77;;
31764;SDS011;18338;53.240;8.798;2022-11-14T05:37:16;37.17;;;22.95;;
31764;SDS011;18338;53.240;8.798;2022-11-14T05:45:31;36.47;;;23.08;;
31764;SDS011;18338;53.240;8.798;2022-11-14T05:47:58;36.03;;;23.13;;
31764;SDS011;18338;53.240;8.798;2022-11-14T05:50:24;37.13;;;23.95;;
31764;SDS011;18338;53.240;8.798;2022-11-14T05:52:51;38.42;;;23.67;;
31764;SDS011;18338;53.240;8.798;2022-11-14T05:55:18;34.58;;;22.55;;
31764;SDS011;18338;53.240;8.798;2022-11-14T05:57:50;36.53;;;24.00;;
31764;SDS011;18338;53.240;8.798;2022-11-14T06:00:16;33.47;;;22.85;;
31764;SDS011;18338;53.240;8.798;2022-11-14T06:02:43;34.67;;;22.35;;
31764;SDS011;18338;53.240;8.798;2022-11-14T06:05:11;38.63;;;24.63;;
31764;SDS011;18338;53.240;8.798;2022-11-14T06:07:37;34.22;;;22.52;;
31764;SDS011;18338;53.240;8.798;2022-11-14T06:10:04;38.58;;;24.38;;
31764;SDS011;18338;53.240;8.798;2022-11-14T06:12:32;34.58;;;23.98;;
31764;SDS011;18338;53.240;8.798;2022-11-14T06:15:05;37.70;;;24.23;;
31764;SDS011;18338;53.240;8.798;2022-11-14T06:23:37;35.00;;;23.17;;
31764;SDS011;18338;53.240;8.798;2022-11-14T06:26:31;37.90;;;23.92;;
31764;SDS011;18338;53.240;8.798;2022-11-14T06:28:58;38.47;;;24.55;;
31764;SDS011;18338;53.240;8.798;2022-11-14T06:31:25;36.63;;;24.33;;
31764;SDS011;18338;53.240;8.798;2022-11-14T06:33:53;39.10;;;24.67;;
31764;SDS011;18338;53.240;8.798;2022-11-14T06:36:20;37.17;;;24.20;;
31764;SDS011;18338;53.240;8.798;2022-11-14T06:38:47;39.80;;;24.80;;
31764;SDS011;18338;53.240;8.798;2022-11-14T06:41:14;36.15;;;24.75;;
31764;SDS011;18338;53.240;8.798;2022-11-14T06:43:44;36.03;;;24.58;;
31764;SDS011;18338;53.240;8.798;2022-11-14T06:49:24;37.35;;;24.30;;
31764;SDS011;18338;53.240;8.798;2022-11-14T06:51:51;39.63;;;25.90;;
31764;SDS011;18338;53.240;8.798;2022-11-14T06:54:17;39.22;;;24.75;;
31764;SDS011;18338;53.240;8.798;2022-11-14T06:56:45;38.60;;;25.50;;
31764;SDS011;18338;53.240;8.798;2022-11-14T06:59:11;35.33;;;23.90;;
31764;SDS011;18338;53.240;8.798;2022-11-14T07:01:39;36.00;;;24.52;;
31764;SDS011;18338;53.240;8.798;2022-11-14T07:04:06;37.58;;;25.15;;
31764;SDS011;18338;53.240;8.798;2022-11-14T07:06:34;37.90;;;24.92;;
31764;SDS011;18338;53.240;8.798;2022-11-14T07:09:06;35.92;;;24.05;;
31764;SDS011;18338;53.240;8.798;2022-11-14T07:11:42;37.33;;;24.48;;
31764;SDS011;18338;53.240;8.798;2022-11-14T07:14:11;35.83;;;24.63;;
31764;SDS011;18338;53.240;8.798;2022-11-14T07:16:38;38.13;;;24.30;;
31764;SDS011;18338;53.240;8.798;2022-11-14T07:19:05;41.78;;;25.80;;
31764;SDS011;18338;53.240;8.798;2022-11-14T07:25:36;36.13;;;24.00;;
31764;SDS011;18338;53.240;8.798;2022-11-14T07:28:18;35.70;;;24.00;;
31764;SDS011;18338;53.240;8.798;2022-11-14T07:38:49;37.85;;;24.00;;
31764;SDS011;18338;53.240;8.798;2022-11-14T07:41:18;37.10;;;24.70;;
31764;SDS011;18338;53.240;8.798;2022-11-14T07:51:38;36.20;;;23.45;;
31764;SDS011;18338;53.240;8.798;2022-11-14T07:55:25;37.90;;;24.77;;
31764;SDS011;18338;53.240;8.798;2022-11-14T08:05:29;36.15;;;23.42;;
31764;SDS011;18338;53.240;8.798;2022-11-14T08:07:55;36.28;;;24.00;;
31764;SDS011;18338;53.240;8.798;2022-11-14T08:10:22;35.60;;;23.92;;
31764;SDS011;18338;53.240;8.798;2022-11-14T08:12:56;37.47;;;24.50;;
31764;SDS011;18338;53.240;8.798;2022-11-14T08:15:44;36.25;;;23.42;;
31764;SDS011;18338;53.240;8.798;2022-11-14T08:18:11;38.47;;;24.75;;
31764;SDS011;18338;53.240;8.798;2022-11-14T08:20:37;35.00;;;23.00;;
31764;SDS011;18338;53.240;8.798;2022-11-14T08:23:04;36.17;;;23.77;;
31764;SDS011;18338;53.240;8.798;2022-11-14T08:25:34;37.17;;;23.95;;
31764;SDS011;18338;53.240;8.798;2022-11-14T08:28:01;35.97;;;24.55;;
31764;SDS011;18338;53.240;8.798;2022-11-14T08:30:28;38.35;;;24.92;;
31764;SDS011;18338;53.240;8.798;2022-11-14T08:32:55;33.67;;;22.95;;
31764;SDS011;18338;53.240;8.798;2022-11-14T08:35:22;33.50;;;22.15;;
31764;SDS011;18338;53.240;8.798;2022-11-14T08:37:49;35.38;;;23.52;;
31764;SDS011;18338;53.240;8.798;2022-11-14T08:40:15;36.33;;;23.88;;
31764;SDS011;18338;53.240;8.798;2022-11-14T08:42:42;35.10;;;23.75;;
31764;SDS011;18338;53.240;8.798;2022-11-14T08:45:09;32.35;;;22.52;;
31764;SDS011;18338;53.240;8.798;2022-11-14T08:47:36;32.40;;;22.33;;
31764;SDS011;18338;53.240;8.798;2022-11-14T08:50:02;36.25;;;23.55;;
31764;SDS011;18338;53.240;8.798;2022-11-14T08:52:30;32.10;;;22.15;;
31764;SDS011;18338;53.240;8.798;2022-11-14T08:54:56;31.58;;;22.45;;
31764;SDS011;18338;53.240;8.798;2022-11-14T08:57:23;31.85;;;21.92;;
31764;SDS011;18338;53.240;8.798;2022-11-14T08:59:50;32.10;;;22.38;;
31764;SDS011;18338;53.240;8.798;2022-11-14T09:02:17;30.52;;;21.15;;
31764;SDS011;18338;53.240;8.798;2022-11-14T09:04:43;31.77;;;22.27;;
31764;SDS011;18338;53.240;8.798;2022-11-14T09:07:10;32.25;;;21.95;;
31764;SDS011;18338;53.240;8.798;2022-11-14T09:09:37;31.50;;;21.48;;
31764;SDS011;18338;53.240;8.798;2022-11-14T09:12:04;28.30;;;20.77;;
31764;SDS011;18338;53.240;8.798;2022-11-14T09:14:31;31.55;;;21.48;;
31764;SDS011;18338;53.240;8.798;2022-11-14T09:16:58;28.55;;;20.83;;
31764;SDS011;18338;53.240;8.798;2022-11-14T09:19:30;31.55;;;21.40;;
31764;SDS011;18338;53.240;8.798;2022-11-14T09:21:57;30.27;;;21.65;;
31764;SDS011;18338;53.240;8.798;2022-11-14T09:24:24;29.50;;;20.80;;
31764;SDS011;18338;53.240;8.798;2022-11-14T09:26:51;30.38;;;21.63;;
31764;SDS011;18338;53.240;8.798;2022-11-14T09:29:22;30.30;;;21.25;;
31764;SDS011;18338;53.240;8.798;2022-11-14T09:31:49;29.95;;;21.25;;
31764;SDS011;18338;53.240;8.798;2022-11-14T09:34:16;27.55;;;20.88;;
31764;SDS011;18338;53.240;8.798;2022-11-14T09:36:43;31.13;;;21.02;;
31764;SDS011;18338;53.240;8.798;2022-11-14T09:39:11;28.65;;;20.55;;
31764;SDS011;18338;53.240;8.798;2022-11-14T09:41:54;28.27;;;20.67;;
31764;SDS011;18338;53.240;8.798;2022-11-14T09:47:09;29.00;;;21.65;;
31764;SDS011;18338;53.240;8.798;2022-11-14T09:49:46;30.52;;;20.95;;
31764;SDS011;18338;53.240;8.798;2022-11-14T09:52:28;29.05;;;20.85;;
31764;SDS011;18338;53.240;8.798;2022-11-14T09:55:16;27.30;;;19.75;;
31764;SDS011;18338;53.240;8.798;2022-11-14T09:57:45;29.58;;;20.83;;
31764;SDS011;18338;53.240;8.798;2022-11-14T10:00:13;28.48;;;20.60;;
31764;SDS011;18338;53.240;8.798;2022-11-14T10:08:31;28.73;;;20.45;;
31764;SDS011;18338;53.240;8.798;2022-11-14T10:11:08;29.83;;;21.83;;
31764;SDS011;18338;53.240;8.798;2022-11-14T10:13:48;32.45;;;21.10;;
31764;SDS011;18338;53.240;8.798;2022-11-14T10:25:15;29.70;;;20.95;;
31764;SDS011;18338;53.240;8.798;2022-11-14T10:30:38;31.02;;;21.52;;
31764;SDS011;18338;53.240;8.798;2022-11-14T10:33:19;31.58;;;21.40;;
31764;SDS011;18338;53.240;8.798;2022-11-14T10:38:48;30.90;;;22.58;;
31764;SDS011;18338;53.240;8.798;2022-11-14T10:41:19;30.38;;;21.55;;
31764;SDS011;18338;53.240;8.798;2022-11-14T10:44:09;33.35;;;22.02;;
31764;SDS011;18338;53.240;8.798;2022-11-14T10:46:47;29.77;;;20.85;;
31764;SDS011;18338;53.240;8.798;2022-11-14T10:49:18;29.38;;;20.77;;
31764;SDS011;18338;53.240;8.798;2022-11-14T10:51:57;31.10;;;21.65;;
31764;SDS011;18338;53.240;8.798;2022-11-14T10:54:27;29.80;;;21.70;;
31764;SDS011;18338;53.240;8.798;2022-11-14T10:57:21;28.50;;;20.67;;
31764;SDS011;18338;53.240;8.798;2022-11-14T10:59:48;27.88;;;20.48;;
31764;SDS011;18338;53.240;8.798;2022-11-14T11:02:21;27.80;;;19.75;;
31764;SDS011;18338;53.240;8.798;2022-11-14T11:04:48;30.00;;;19.63;;
31764;SDS011;18338;53.240;8.798;2022-11-14T11:07:19;24.63;;;18.05;;
31764;SDS011;18338;53.240;8.798;2022-11-14T11:10:18;25.92;;;18.88;;
31764;SDS011;18338;53.240;8.798;2022-11-14T11:13:05;23.65;;;18.27;;
31764;SDS011;18338;53.240;8.798;2022-11-14T11:15:39;26.88;;;19.52;;
31764;SDS011;18338;53.240;8.798;2022-11-14T11:23:31;25.38;;;18.48;;
31764;SDS011;18338;53.240;8.798;2022-11-14T11:26:04;28.05;;;18.48;;
31764;SDS011;18338;53.240;8.798;2022-11-14T11:28:36;23.13;;;18.52;;
31764;SDS011;18338;53.240;8.798;2022-11-14T11:31:04;25.80;;;19.35;;
31764;SDS011;18338;53.240;8.798;2022-11-14T11:33:33;26.10;;;18.17;;
31764;SDS011;18338;53.240;8.798;2022-11-14T11:36:04;26.25;;;19.10;;
31764;SDS011;18338;53.240;8.798;2022-11-14T11:38:37;26.25;;;19.30;;
31764;SDS011;18338;53.240;8.798;2022-11-14T11:41:06;27.42;;;19.83;;
31764;SDS011;18338;53.240;8.798;2022-11-14T11:44:20;28.48;;;20.73;;
31764;SDS011;18338;53.240;8.798;2022-11-14T11:46:55;25.95;;;18.90;;
31764;SDS011;18338;53.240;8.798;2022-11-14T11:51:57;25.88;;;19.38;;
31764;SDS011;18338;53.240;8.798;2022-11-14T11:54:32;25.23;;;18.05;;
31764;SDS011;18338;53.240;8.798;2022-11-14T11:57:23;25.08;;;17.65;;
31764;SDS011;18338;53.240;8.798;2022-11-14T12:00:00;25.65;;;18.80;;
31764;SDS011;18338;53.240;8.798;2022-11-14T12:02:49;28.45;;;18.95;;
31764;SDS011;18338;53.240;8.798;2022-11-14T12:06:01;28.98;;;19.45;;
31764;SDS011;18338;53.240;8.798;2022-11-14T12:08:42;26.40;;;18.52;;
31764;SDS011;18338;53.240;8.798;2022-11-14T12:11:16;25.95;;;18.77;;
31764;SDS011;18338;53.240;8.798;2022-11-14T12:30:28;23.77;;;16.05;;
31764;SDS011;18338;53.240;8.798;2022-11-14T12:33:01;24.40;;;16.63;;
31764;SDS011;18338;53.240;8.798;2022-11-14T12:35:35;23.52;;;18.55;;
31764;SDS011;18338;53.240;8.798;2022-11-14T12:38:03;22.85;;;17.40;;
31764;SDS011;18338;53.240;8.798;2022-11-14T12:40:38;24.77;;;18.27;;
31764;SDS011;18338;53.240;8.798;2022-11-14T12:43:27;24.25;;;18.33;;
31764;SDS011;18338;53.240;8.798;2022-11-14T12:46:03;21.30;;;17.13;;
31764;SDS011;18338;53.240;8.798;2022-11-14T12:48:35;21.23;;;16.70;;
31764;SDS011;18338;53.240;8.798;2022-11-14T12:51:47;19.70;;;15.50;;
31764;SDS011;18338;53.240;8.798;2022-11-14T12:57:13;21.10;;;17.38;;
31764;SDS011;18338;53.240;8.798;2022-11-14T13:00:06;20.27;;;16.70;;
31764;SDS011;18338;53.240;8.798;2022-11-14T13:02:40;24.75;;;17.73;;
31764;SDS011;18338;53.240;8.798;2022-11-14T13:05:24;22.13;;;17.30;;
31764;SDS011;18338;53.240;8.798;2022-11-14T13:08:21;23.65;;;17.45;;
31764;SDS011;18338;53.240;8.798;2022-11-14T13:10:53;23.95;;;18.00;;
31764;SDS011;18338;53.240;8.798;2022-11-14T13:13:21;22.35;;;18.05;;
31764;SDS011;18338;53.240;8.798;2022-11-14T13:16:20;22.00;;;17.13;;
31764;SDS011;18338;53.240;8.798;2022-11-14T13:27:36;22.48;;;17.00;;
31764;SDS011;18338;53.240;8.798;2022-11-14T13:31:03;23.52;;;17.45;;
31764;SDS011;18338;53.240;8.798;2022-11-14T13:33:39;23.90;;;17.48;;
31764;SDS011;18338;53.240;8.798;2022-11-14T13:36:25;21.48;;;16.92;;
31764;SDS011;18338;53.240;8.798;2022-11-14T13:39:12;21.95;;;17.23;;
31764;SDS011;18338;53.240;8.798;2022-11-14T13:49:51;22.10;;;17.42;;
31764;SDS011;18338;53.240;8.798;2022-11-14T13:52:32;22.70;;;17.48;;
31764;SDS011;18338;53.240;8.798;2022-11-14T13:55:00;24.73;;;18.70;;
31764;SDS011;18338;53.240;8.798;2022-11-14T13:57:32;24.80;;;18.60;;
31764;SDS011;18338;53.240;8.798;2022-11-14T14:08:18;24.27;;;18.52;;
31764;SDS011;18338;53.240;8.798;2022-11-14T14:10:52;23.33;;;17.70;;
31764;SDS011;18338;53.240;8.798;2022-11-14T14:19:50;22.75;;;17.38;;
31764;SDS011;18338;53.240;8.798;2022-11-14T14:25:12;20.67;;;16.63;;
31764;SDS011;18338;53.240;8.798;2022-11-14T14:31:08;21.20;;;16.27;;
31764;SDS011;18338;53.240;8.798;2022-11-14T14:33:41;21.27;;;16.40;;
31764;SDS011;18338;53.240;8.798;2022-11-14T14:36:19;20.08;;;16.35;;
31764;SDS011;18338;53.240;8.798;2022-11-14T14:39:05;19.60;;;15.88;;
31764;SDS011;18338;53.240;8.798;2022-11-14T14:41:42;20.85;;;16.17;;
31764;SDS011;18338;53.240;8.798;2022-11-14T14:44:16;21.58;;;16.15;;
31764;SDS011;18338;53.240;8.798;2022-11-14T14:46:44;21.88;;;16.98;;
31764;SDS011;18338;53.240;8.798;2022-11-14T14:49:11;23.55;;;17.77;;
31764;SDS011;18338;53.240;8.798;2022-11-14T14:51:59;22.60;;;17.25;;
31764;SDS011;18338;53.240;8.798;2022-11-14T14:54:27;21.98;;;17.08;;
31764;SDS011;18338;53.240;8.798;2022-11-14T14:56:55;22.42;;;16.25;;
31764;SDS011;18338;53.240;8.798;2022-11-14T14:59:26;25.02;;;18.15;;
31764;SDS011;18338;53.240;8.798;2022-11-14T15:01:55;21.35;;;16.55;;
31764;SDS011;18338;53.240;8.798;2022-11-14T15:04:23;24.02;;;17.05;;
31764;SDS011;18338;53.240;8.798;2022-11-14T15:07:03;23.25;;;17.77;;
31764;SDS011;18338;53.240;8.798;2022-11-14T15:09:30;23.80;;;17.38;;
31764;SDS011;18338;53.240;8.798;2022-11-14T15:11:57;24.65;;;17.90;;
31764;SDS011;18338;53.240;8.798;2022-11-14T15:14:27;23.73;;;17.27;;
31764;SDS011;18338;53.240;8.798;2022-11-14T15:16:55;25.30;;;18.27;;
31764;SDS011;18338;53.240;8.798;2022-11-14T15:19:26;27.20;;;18.75;;
31764;SDS011;18338;53.240;8.798;2022-11-14T15:24:29;28.73;;;18.67;;
31764;SDS011;18338;53.240;8.798;2022-11-14T15:26:56;27.30;;;19.02;;
31764;SDS011;18338;53.240;8.798;2022-11-14T15:29:24;27.73;;;20.02;;
31764;SDS011;18338;53.240;8.798;2022-11-14T15:32:02;28.10;;;20.00;;
31764;SDS011;18338;53.240;8.798;2022-11-14T15:34:31;30.40;;;19.98;;
31764;SDS011;18338;53.240;8.798;2022-11-14T15:39:35;32.58;;;21.35;;
31764;SDS011;18338;53.240;8.798;2022-11-14T15:44:49;34.55;;;21.25;;
31764;SDS011;18338;53.240;8.798;2022-11-14T15:47:29;34.30;;;22.30;;
31764;SDS011;18338;53.240;8.798;2022-11-14T15:50:18;33.67;;;22.02;;
31764;SDS011;18338;53.240;8.798;2022-11-14T15:53:33;34.92;;;24.42;;
31764;SDS011;18338;53.240;8.798;2022-11-14T15:55:43;34.83;;;22.55;;
31764;SDS011;18338;53.240;8.798;2022-11-14T15:58:11;37.15;;;23.30;;
31764;SDS011;18338;53.240;8.798;2022-11-14T16:00:53;40.22;;;25.83;;
31764;SDS011;18338;53.240;8.798;2022-11-14T16:03:21;38.15;;;24.40;;
31764;SDS011;18338;53.240;8.798;2022-11-14T16:05:48;40.40;;;25.65;;
31764;SDS011;18338;53.240;8.798;2022-11-14T16:08:14;42.00;;;26.55;;
31764;SDS011;18338;53.240;8.798;2022-11-14T16:10:41;39.70;;;25.48;;
31764;SDS011;18338;53.240;8.798;2022-11-14T16:13:08;41.70;;;26.60;;
31764;SDS011;18338;53.240;8.798;2022-11-14T16:15:36;44.33;;;27.25;;
31764;SDS011;18338;53.240;8.798;2022-11-14T16:18:03;48.03;;;27.85;;
31764;SDS011;18338;53.240;8.798;2022-11-14T16:20:30;47.85;;;30.55;;
31764;SDS011;18338;53.240;8.798;2022-11-14T16:23:03;45.20;;;28.33;;
31764;SDS011;18338;53.240;8.798;2022-11-14T16:25:30;44.53;;;27.47;;
31764;SDS011;18338;53.240;8.798;2022-11-14T16:27:57;41.50;;;26.73;;
31764;SDS011;18338;53.240;8.798;2022-11-14T16:30:24;43.73;;;26.83;;
31764;SDS011;18338;53.240;8.798;2022-11-14T16:32:51;46.85;;;27.98;;
31764;SDS011;18338;53.240;8.798;2022-11-14T16:35:18;51.43;;;30.40;;
31764;SDS011;18338;53.240;8.798;2022-11-14T16:37:47;49.77;;;30.07;;
31764;SDS011;18338;53.240;8.798;2022-11-14T16:40:18;55.83;;;32.20;;
31764;SDS011;18338;53.240;8.798;2022-11-14T16:42:53;48.27;;;28.20;;
31764;SDS011;18338;53.240;8.798;2022-11-14T16:45:25;48.40;;;28.63;;
31764;SDS011;18338;53.240;8.798;2022-11-14T16:51:12;53.53;;;31.67;;
31764;SDS011;18338;53.240;8.798;2022-11-14T16:54:05;55.00;;;32.43;;
31764;SDS011;18338;53.240;8.798;2022-11-14T16:56:34;57.17;;;30.83;;
31764;SDS011;18338;53.240;8.798;2022-11-14T16:59:02;55.03;;;31.58;;
31764;SDS011;18338;53.240;8.798;2022-11-14T17:01:32;55.87;;;31.37;;
31764;SDS011;18338;53.240;8.798;2022-11-14T17:04:00;54.57;;;31.77;;
31764;SDS011;18338;53.240;8.798;2022-11-14T17:06:28;57.78;;;30.55;;
31764;SDS011;18338;53.240;8.798;2022-11-14T17:08:56;55.30;;;29.53;;
31764;SDS011;18338;53.240;8.798;2022-11-14T17:11:24;57.60;;;31.93;;